Time;durP1;ratioP1;P1;durP2;ratioP2;P2;SDS_P1;SDS_P2;PMS_P1;PMS_P2;Temp;Humidity;BMP_temperature;BMP_pressure;BME280_temperature;BME280_humidity;BME280_pressure;Samples;Min_cycle;Max_cycle;Signal;HPM_P1;HPM_P2
2022/04/26 03:37:52;;;;;;;17.85;11.05;;;7.60;99.90;;;;;;5029022;28;20057;-67
2022/04/26 03:40:18;;;;;;;17.55;11.05;;;7.50;99.90;;;;;;5028310;28;20120;-67
2022/04/26 03:42:43;;;;;;;16.38;10.75;;;7.50;99.90;;;;;;5028867;28;20192;-68
2022/04/26 03:45:09;;;;;;;17.55;10.57;;;7.50;99.90;;;;;;5030762;28;20057;-68
2022/04/26 03:47:35;;;;;;;17.73;10.40;;;7.50;99.90;;;;;;5032260;28;20038;-68
2022/04/26 03:50:00;;;;;;;19.73;10.77;;;7.50;99.90;;;;;;5031177;28;20041;-68
2022/04/26 03:52:26;;;;;;;17.27;10.57;;;7.40;99.90;;;;;;5032434;28;20030;-68
2022/04/26 03:54:52;;;;;;;20.00;10.27;;;7.40;99.90;;;;;;5032955;28;20056;-68
2022/04/26 03:57:17;;;;;;;17.73;10.50;;;7.40;99.90;;;;;;5032963;28;20041;-67
2022/04/26 03:59:43;;;;;;;21.60;10.32;;;7.30;99.90;;;;;;5031049;28;20128;-67
2022/04/26 04:02:09;;;;;;;15.80;9.77;;;7.30;99.90;;;;;;5032814;28;20132;-67
2022/04/26 04:04:34;;;;;;;17.67;9.85;;;7.30;99.90;;;;;;5030146;28;20045;-67
2022/04/26 04:07:00;;;;;;;17.67;10.07;;;7.30;99.90;;;;;;5032977;28;20037;-68
2022/04/26 04:09:25;;;;;;;19.10;9.10;;;7.30;99.90;;;;;;5030680;28;20037;-68
2022/04/26 04:11:52;;;;;;;14.18;9.02;;;7.30;99.90;;;;;;5032593;28;20128;-68
2022/04/26 04:14:18;;;;;;;20.50;10.10;;;7.30;99.90;;;;;;5030486;28;20159;-68
2022/04/26 04:16:44;;;;;;;20.55;10.40;;;7.30;99.90;;;;;;5031471;28;20438;-68
2022/04/26 04:19:18;;;;;;;11.95;9.05;;;7.20;99.90;;;;;;5027564;28;20473;-68
2022/04/26 04:21:45;;;;;;;17.02;9.32;;;7.30;99.90;;;;;;5031430;28;20077;-68
2022/04/26 04:24:12;;;;;;;16.35;9.18;;;7.30;99.90;;;;;;5030603;28;20091;-68
2022/04/26 04:26:38;;;;;;;18.88;9.57;;;7.30;99.90;;;;;;5032358;28;20512;-68
2022/04/26 04:29:05;;;;;;;15.77;9.10;;;7.30;99.90;;;;;;5032014;28;20038;-68
2022/04/26 04:31:32;;;;;;;17.35;10.13;;;7.40;99.90;;;;;;5032511;28;20041;-68
2022/04/26 04:33:57;;;;;;;15.68;9.10;;;7.30;99.90;;;;;;5029991;28;20527;-68
2022/04/26 04:36:23;;;;;;;19.33;9.57;;;7.30;99.90;;;;;;5030735;28;20057;-68
2022/04/26 04:38:49;;;;;;;17.02;9.70;;;7.30;99.90;;;;;;5030880;28;20037;-67
2022/04/26 04:41:15;;;;;;;18.05;9.77;;;7.30;99.90;;;;;;5032216;28;20111;-68
2022/04/26 04:43:40;;;;;;;15.98;9.27;;;7.20;99.90;;;;;;5030039;28;20472;-69
2022/04/26 04:46:06;;;;;;;19.75;9.48;;;7.30;99.90;;;;;;5030643;28;20030;-68
2022/04/26 04:48:32;;;;;;;17.17;10.05;;;7.30;99.90;;;;;;5029552;28;20254;-68
2022/04/26 04:50:57;;;;;;;14.25;9.13;;;7.20;99.90;;;;;;5032119;28;20069;-68
2022/04/26 04:53:23;;;;;;;15.18;8.65;;;7.20;99.90;;;;;;5029965;28;20072;-68
2022/04/26 04:55:49;;;;;;;17.90;9.30;;;7.20;99.90;;;;;;5030287;28;20109;-67
2022/04/26 04:58:14;;;;;;;20.60;9.50;;;7.20;99.90;;;;;;5031367;28;20072;-68
2022/04/26 05:00:40;;;;;;;17.50;8.85;;;7.20;99.90;;;;;;5030870;28;20513;-68
2022/04/26 05:03:06;;;;;;;17.58;8.23;;;7.30;99.90;;;;;;5031019;28;20373;-68
2022/04/26 05:05:32;;;;;;;21.90;8.93;;;7.30;99.90;;;;;;5030713;28;20095;-68
2022/04/26 05:07:58;;;;;;;16.60;8.90;;;7.30;99.90;;;;;;5031213;28;20073;-68
2022/04/26 05:10:24;;;;;;;14.77;8.30;;;7.30;99.90;;;;;;5031609;28;20433;-67
2022/04/26 05:12:50;;;;;;;15.20;7.72;;;7.30;99.90;;;;;;5030021;28;20153;-68
2022/04/26 05:15:16;;;;;;;16.77;7.95;;;7.40;99.90;;;;;;5028931;28;20139;-67
2022/04/26 05:17:42;;;;;;;16.13;8.13;;;7.40;99.90;;;;;;5029258;28;20559;-67
2022/04/26 05:20:08;;;;;;;18.00;7.47;;;7.40;99.90;;;;;;5031406;28;20396;-67
2022/04/26 05:24:53;;;;;;;12.70;7.55;;;7.40;99.90;;;;;;5030040;28;20061;-67
2022/04/26 05:25:20;;;;;;;15.65;6.63;;;7.40;99.90;;;;;;5031633;28;20056;-68
2022/04/26 05:27:46;;;;;;;14.75;6.47;;;7.50;99.90;;;;;;5031203;28;20030;-68
2022/04/26 05:30:12;;;;;;;16.70;6.57;;;7.40;99.90;;;;;;5031445;28;20044;-67
2022/04/26 05:32:38;;;;;;;16.90;6.70;;;7.50;99.90;;;;;;5030602;28;20045;-68
2022/04/26 05:35:06;;;;;;;20.30;6.78;;;7.50;99.90;;;;;;5030068;28;20045;-67
2022/04/26 05:37:31;;;;;;;16.67;6.50;;;7.60;99.90;;;;;;5029742;28;20116;-67
2022/04/26 05:40:02;;;;;;;16.13;6.82;;;7.60;99.90;;;;;;5030203;28;20191;-68
2022/04/26 05:42:29;;;;;;;15.57;5.65;;;7.70;99.90;;;;;;5031029;28;20719;-67
2022/04/26 05:44:55;;;;;;;14.27;5.53;;;7.70;99.90;;;;;;5029700;28;20053;-67
2022/04/26 05:47:21;;;;;;;13.60;5.28;;;7.80;99.90;;;;;;5030779;28;20041;-67
2022/04/26 05:49:47;;;;;;;15.27;4.85;;;7.80;99.90;;;;;;5030237;28;20048;-67
2022/04/26 05:52:13;;;;;;;16.85;5.82;;;7.80;99.90;;;;;;5026209;28;20041;-66
2022/04/26 05:54:39;;;;;;;14.50;5.03;;;8.00;99.90;;;;;;5030887;28;20048;-67
2022/04/26 05:57:05;;;;;;;13.45;4.63;;;7.90;99.90;;;;;;5031002;28;20453;-67
2022/04/26 05:59:31;;;;;;;10.85;5.07;;;8.00;99.90;;;;;;5029107;28;20125;-68
2022/04/26 06:01:57;;;;;;;12.13;4.82;;;8.00;99.90;;;;;;5028922;28;20084;-68
2022/04/26 06:04:24;;;;;;;15.18;5.10;;;8.10;99.90;;;;;;5029336;28;20037;-67
2022/04/26 06:06:50;;;;;;;10.82;4.18;;;8.20;99.90;;;;;;5028821;28;20041;-67
2022/04/26 06:09:16;;;;;;;10.73;3.90;;;8.20;99.90;;;;;;5029168;28;20467;-67
2022/04/26 06:11:42;;;;;;;13.25;4.20;;;8.40;99.90;;;;;;5028763;28;20116;-67
2022/04/26 06:14:08;;;;;;;10.80;3.92;;;8.60;99.90;;;;;;5012311;28;20488;-66
2022/04/26 06:16:34;;;;;;;8.23;3.65;;;8.80;99.90;;;;;;5029560;28;20072;-67
2022/04/26 06:19:00;;;;;;;10.05;3.53;;;9.00;99.90;;;;;;5028245;28;20143;-67
2022/04/26 06:21:25;;;;;;;12.40;3.50;;;9.10;99.90;;;;;;5029525;28;20045;-67
2022/04/26 06:23:51;;;;;;;12.00;4.00;;;9.20;99.90;;;;;;5028382;28;20045;-67
2022/04/26 06:26:17;;;;;;;12.32;4.35;;;9.20;99.90;;;;;;5029066;28;20037;-67
2022/04/26 06:28:43;;;;;;;13.23;3.53;;;9.20;99.90;;;;;;5026254;28;20110;-67
2022/04/26 06:31:09;;;;;;;10.35;3.58;;;9.20;99.90;;;;;;5028874;28;20484;-67
2022/04/26 06:33:34;;;;;;;13.45;4.18;;;9.20;99.90;;;;;;5029035;28;20056;-67
2022/04/26 06:36:00;;;;;;;13.57;4.30;;;9.10;99.90;;;;;;5028723;28;20053;-67
2022/04/26 06:38:26;;;;;;;10.32;3.30;;;9.10;99.90;;;;;;5029455;28;20029;-67
2022/04/26 06:40:53;;;;;;;11.98;4.18;;;9.20;99.90;;;;;;5030095;28;20108;-66
2022/04/26 06:43:19;;;;;;;11.40;3.75;;;9.30;99.90;;;;;;5028168;28;20676;-67
2022/04/26 06:45:48;;;;;;;11.20;3.55;;;9.30;99.90;;;;;;5028601;28;20505;-68
2022/04/26 06:48:15;;;;;;;10.68;3.72;;;9.30;99.90;;;;;;5027976;28;20076;-67
2022/04/26 06:50:42;;;;;;;9.68;3.20;;;9.30;99.90;;;;;;5030266;28;20563;-67
2022/04/26 06:53:08;;;;;;;7.88;3.00;;;9.20;99.90;;;;;;5028360;28;20035;-67
2022/04/26 06:55:34;;;;;;;9.45;3.33;;;9.20;99.90;;;;;;5028773;28;20084;-67
2022/04/26 06:58:00;;;;;;;11.65;3.97;;;9.20;99.90;;;;;;5029719;28;20045;-67
2022/04/26 07:00:26;;;;;;;12.43;2.88;;;9.30;99.90;;;;;;5028610;28;20381;-67
2022/04/26 07:02:53;;;;;;;9.80;2.92;;;9.40;99.90;;;;;;5028987;28;20084;-67
2022/04/26 07:05:20;;;;;;;7.47;3.15;;;9.60;99.90;;;;;;5029973;28;20068;-67
2022/04/26 07:07:46;;;;;;;9.73;3.50;;;9.70;99.90;;;;;;5028230;28;20104;-68
2022/04/26 07:10:12;;;;;;;8.95;3.10;;;9.80;99.90;;;;;;5028314;28;20045;-68
2022/04/26 07:12:37;;;;;;;8.63;3.00;;;9.70;99.90;;;;;;5029770;28;20034;-67
2022/04/26 07:15:04;;;;;;;7.65;3.08;;;9.70;99.90;;;;;;5028386;28;20428;-68
2022/04/26 07:17:30;;;;;;;9.00;3.47;;;9.70;99.90;;;;;;5029174;28;20151;-68
2022/04/26 07:19:58;;;;;;;8.30;3.30;;;9.80;99.90;;;;;;5033260;28;20484;-68
2022/04/26 07:22:24;;;;;;;16.20;3.20;;;10.00;99.90;;;;;;5032457;28;20041;-67
2022/04/26 07:24:50;;;;;;;10.10;3.30;;;10.30;99.90;;;;;;5033665;28;20455;-68
2022/04/26 07:27:16;;;;;;;12.20;3.50;;;10.50;99.90;;;;;;5032555;28;20059;-68
2022/04/26 07:29:43;;;;;;;5.20;2.63;;;10.40;99.90;;;;;;5033669;28;20037;-68
2022/04/26 07:32:10;;;;;;;6.85;2.50;;;10.30;99.90;;;;;;5032174;28;20060;-68
2022/04/26 07:34:36;;;;;;;9.93;3.03;;;10.30;99.90;;;;;;5031134;28;20478;-70
2022/04/26 07:37:02;;;;;;;9.85;2.70;;;10.40;99.90;;;;;;5033754;28;20037;-68
2022/04/26 07:39:29;;;;;;;8.15;2.45;;;10.40;99.90;;;;;;5033014;28;20056;-67
2022/04/26 07:41:55;;;;;;;7.53;2.58;;;10.50;99.90;;;;;;5032249;28;20044;-68
2022/04/26 07:44:21;;;;;;;7.40;2.40;;;10.60;99.90;;;;;;5032832;28;20513;-68
2022/04/26 07:46:49;;;;;;;5.97;2.22;;;11.00;99.90;;;;;;5033632;28;20127;-67
2022/04/26 07:49:16;;;;;;;6.88;2.50;;;11.20;99.50;;;;;;5030013;28;20058;-68
2022/04/26 07:51:42;;;;;;;5.95;2.15;;;11.20;98.60;;;;;;5031986;28;20120;-68
2022/04/26 07:54:09;;;;;;;8.68;2.30;;;11.00;98.40;;;;;;5032981;28;20468;-67
2022/04/26 07:56:35;;;;;;;7.63;2.45;;;10.90;99.00;;;;;;5033191;28;20033;-68
2022/04/26 07:59:03;;;;;;;6.75;2.35;;;10.70;98.80;;;;;;5033483;28;20432;-68
2022/04/26 08:01:30;;;;;;;5.47;2.15;;;10.60;98.80;;;;;;5031685;28;20052;-68
2022/04/26 08:03:57;;;;;;;7.55;2.17;;;10.60;98.80;;;;;;5031271;28;20038;-69
2022/04/26 08:06:22;;;;;;;11.57;3.03;;;10.60;98.00;;;;;;5030050;28;20052;-68
2022/04/26 08:08:48;;;;;;;7.82;1.98;;;10.50;97.70;;;;;;5031323;28;20121;-69
2022/04/26 08:11:14;;;;;;;7.32;2.03;;;10.40;97.90;;;;;;5031262;28;20576;-68
2022/04/26 08:13:40;;;;;;;9.23;2.50;;;10.60;98.10;;;;;;5014460;28;20107;-69
2022/04/26 08:16:07;;;;;;;9.00;2.70;;;11.10;97.80;;;;;;5032505;28;20492;-68
2022/04/26 08:18:32;;;;;;;6.82;2.80;;;11.40;96.50;;;;;;5030502;28;20049;-68
2022/04/26 08:20:58;;;;;;;6.43;2.50;;;11.90;97.30;;;;;;5032246;28;20087;-68
2022/04/26 08:23:24;;;;;;;4.90;1.80;;;12.50;96.60;;;;;;5030889;28;20045;-68
2022/04/26 08:28:34;;;;;;;6.70;2.55;;;12.40;94.10;;;;;;5030827;28;20047;-68
2022/04/26 08:31:00;;;;;;;5.80;2.13;;;11.90;93.10;;;;;;5031989;28;20046;-68
2022/04/26 08:33:34;;;;;;;6.32;2.13;;;11.50;93.50;;;;;;5031646;28;20042;-69
2022/04/26 08:36:01;;;;;;;3.95;1.73;;;11.30;93.90;;;;;;5032416;28;20037;-69
2022/04/26 08:38:26;;;;;;;6.47;2.22;;;11.10;94.10;;;;;;5030156;28;20037;-69
2022/04/26 08:40:52;;;;;;;3.80;1.80;;;11.00;93.80;;;;;;5030754;28;20137;-69
2022/04/26 08:43:18;;;;;;;6.97;2.00;;;11.00;94.10;;;;;;5031575;28;20404;-69
2022/04/26 08:45:46;;;;;;;7.45;2.50;;;11.10;94.00;;;;;;5030584;28;20152;-68
2022/04/26 08:50:59;;;;;;;7.43;2.03;;;11.90;93.00;;;;;;5030207;28;20128;-69
2022/04/26 08:53:27;;;;;;;6.63;2.30;;;12.30;92.80;;;;;;5030090;28;20037;-68
2022/04/26 08:56:01;;;;;;;7.85;2.20;;;12.50;91.60;;;;;;5032376;28;20497;-69
2022/04/26 08:58:29;;;;;;;8.35;2.42;;;12.40;90.00;;;;;;5010591;28;20081;-68
2022/04/26 09:01:11;;;;;;;6.03;2.45;;;12.30;91.00;;;;;;5030655;28;20473;-68
2022/04/26 09:03:55;;;;;;;3.22;1.92;;;12.40;91.60;;;;;;5030002;28;20727;-69
2022/04/26 09:06:30;;;;;;;7.80;2.45;;;12.40;91.40;;;;;;5030715;28;20037;-68
2022/04/26 09:09:11;;;;;;;;;;;12.40;90.40;;;;;;5031866;28;20037;-68
2022/04/26 09:11:38;;;;;;;6.30;2.45;;;12.10;90.10;;;;;;5030068;28;19940;-68
2022/04/26 09:14:11;;;;;;;8.68;2.58;;;12.00;91.60;;;;;;5028817;28;20548;-68
2022/04/26 09:16:37;;;;;;;8.38;2.30;;;12.20;91.60;;;;;;5030250;28;20055;-69
2022/04/26 09:19:06;;;;;;;9.30;2.50;;;12.70;92.30;;;;;;5029190;28;20128;-69
2022/04/26 09:21:33;;;;;;;8.10;2.63;;;13.00;90.20;;;;;;5030372;28;20053;-69
2022/04/26 09:24:04;;;;;;;5.57;2.28;;;12.90;89.00;;;;;;5029696;28;20052;-69
2022/04/26 09:26:34;;;;;;;9.00;2.38;;;12.60;88.30;;;;;;5030253;28;20497;-69
2022/04/26 09:29:00;;;;;;;6.40;2.20;;;12.60;87.40;;;;;;5030911;28;20038;-69
2022/04/26 09:31:28;;;;;;;6.97;2.58;;;12.80;86.00;;;;;;5031744;28;20037;-69
2022/04/26 09:34:04;;;;;;;6.00;2.30;;;13.00;84.40;;;;;;5030837;28;20037;-68
2022/04/26 09:36:36;;;;;;;4.38;2.10;;;13.40;81.20;;;;;;5029212;28;20068;-68
2022/04/26 09:39:04;;;;;;;5.75;2.22;;;14.30;83.90;;;;;;5028685;28;20041;-69
2022/04/26 09:41:32;;;;;;;5.15;2.40;;;15.50;81.50;;;;;;5012471;28;20085;-69
2022/04/26 09:43:58;;;;;;;4.95;2.10;;;15.40;73.90;;;;;;5012677;28;20041;-69
2022/04/26 09:46:24;;;;;;;5.75;2.00;;;14.90;72.10;;;;;;5029468;28;20076;-69
2022/04/26 09:48:53;;;;;;;4.82;2.00;;;14.70;72.50;;;;;;5030126;28;20416;-69
2022/04/26 09:51:18;;;;;;;5.35;2.05;;;15.00;72.70;;;;;;5013199;28;20041;-68
2022/04/26 09:53:44;;;;;;;4.55;2.20;;;15.50;74.10;;;;;;5028381;28;20049;-69
2022/04/26 09:56:13;;;;;;;6.18;2.00;;;15.50;70.20;;;;;;5029630;28;20037;-69
2022/04/26 09:58:42;;;;;;;4.32;1.80;;;15.20;68.60;;;;;;5029175;28;20077;-69
2022/04/26 10:01:08;;;;;;;4.38;1.80;;;15.10;69.30;;;;;;5029448;28;20516;-69
2022/04/26 10:03:40;;;;;;;3.33;1.80;;;15.60;69.90;;;;;;5029910;28;20049;-69
2022/04/26 10:06:10;;;;;;;6.03;2.15;;;15.50;66.80;;;;;;5029418;28;20504;-69
2022/04/26 10:08:36;;;;;;;5.80;2.08;;;15.10;68.50;;;;;;5029410;28;20107;-69
2022/04/26 10:11:05;;;;;;;3.95;2.05;;;14.60;68.20;;;;;;5029290;28;20037;-69
2022/04/26 10:13:42;;;;;;;5.03;1.90;;;14.80;68.20;;;;;;5026023;28;20612;-69
2022/04/26 10:16:10;;;;;;;5.68;2.03;;;15.20;67.60;;;;;;5027630;28;20128;-69
2022/04/26 10:18:44;;;;;;;3.65;1.60;;;15.90;64.80;;;;;;5030017;28;20045;-69
2022/04/26 10:21:12;;;;;;;4.22;1.70;;;16.00;63.20;;;;;;5029399;28;20045;-69
2022/04/26 10:24:02;;;;;;;2.83;1.63;;;16.20;65.70;;;;;;5028953;28;20041;-69
2022/04/26 10:26:28;;;;;;;5.65;1.88;;;16.50;62.10;;;;;;5028919;28;20045;-69
2022/04/26 10:28:59;;;;;;;3.30;1.60;;;16.20;61.60;;;;;;5012357;28;20042;-69
2022/04/26 10:31:48;;;;;;;4.20;1.80;;;15.90;61.60;;;;;;5027912;28;20076;-69
2022/04/26 10:34:32;;;;;;;2.72;1.63;;;15.60;60.90;;;;;;5026721;28;20099;-69
2022/04/26 10:37:06;;;;;;;6.43;2.13;;;15.30;62.10;;;;;;5029644;28;20120;-69
2022/04/26 10:39:45;;;;;;;5.47;1.88;;;15.00;64.40;;;;;;5029236;28;20041;-69
2022/04/26 10:42:16;;;;;;;4.90;1.77;;;15.30;64.10;;;;;;5029292;28;20512;-68
2022/04/26 10:44:46;;;;;;;3.97;1.65;;;15.50;63.30;;;;;;5027073;28;20207;-69
2022/04/26 10:47:24;;;;;;;4.75;1.63;;;15.80;61.20;;;;;;5028344;28;20056;-69
2022/04/26 10:49:51;;;;;;;3.85;1.92;;;16.00;62.40;;;;;;5027440;28;20096;-69
2022/04/26 10:52:36;;;;;;;3.10;1.27;;;16.20;59.70;;;;;;5029904;28;20045;-69
2022/04/26 10:55:12;;;;;;;6.20;1.70;;;16.50;58.20;;;;;;5032629;28;20513;-69
2022/04/26 10:57:46;;;;;;;4.65;1.70;;;16.60;58.30;;;;;;5031955;28;20045;-69
2022/04/26 11:00:28;;;;;;;5.18;1.50;;;16.70;58.70;;;;;;5033705;28;20117;-69
2022/04/26 11:03:01;;;;;;;4.95;1.60;;;17.10;57.60;;;;;;5031766;28;20580;-69
2022/04/26 11:05:30;;;;;;;4.33;1.63;;;17.10;55.30;;;;;;5029368;28;20046;-69
2022/04/26 11:07:56;;;;;;;4.57;1.70;;;17.10;55.60;;;;;;5033812;28;20045;-70
2022/04/26 11:10:26;;;;;;;7.70;1.77;;;16.90;54.00;;;;;;5033076;28;20424;-70
2022/04/26 11:12:55;;;;;;;5.25;1.33;;;16.80;56.20;;;;;;5033651;28;20052;-70
2022/04/26 11:15:23;;;;;;;2.42;1.27;;;17.20;54.90;;;;;;5031612;28;20045;-70
2022/04/26 11:17:51;;;;;;;3.67;1.25;;;17.50;55.80;;;;;;5033256;28;20447;-70
2022/04/26 11:20:18;;;;;;;5.57;1.70;;;17.80;53.80;;;;;;5033082;28;20052;-70
2022/04/26 11:22:49;;;;;;;4.70;1.58;;;17.40;53.50;;;;;;5033961;28;20046;-69
2022/04/26 11:28:09;;;;;;;3.90;1.45;;;16.90;53.90;;;;;;5032004;28;20096;-69
2022/04/26 11:30:36;;;;;;;3.78;1.63;;;16.60;53.20;;;;;;5033853;28;20048;-69
2022/04/26 11:33:06;;;;;;;4.38;1.45;;;16.60;55.20;;;;;;5031651;28;20079;-69
2022/04/26 11:35:34;;;;;;;4.53;1.45;;;16.90;52.90;;;;;;5031124;28;20054;-69
2022/04/26 11:38:18;;;;;;;4.65;1.30;;;17.40;53.70;;;;;;5031481;28;20507;-69
2022/04/26 11:40:55;;;;;;;2.88;1.27;;;17.60;54.00;;;;;;5032056;28;20042;-69
2022/04/26 11:43:23;;;;;;;5.18;1.65;;;17.80;52.70;;;;;;5031353;28;20053;-69
2022/04/26 11:45:51;;;;;;;3.17;1.40;;;17.30;52.50;;;;;;5032079;28;20628;-69
2022/04/26 11:48:29;;;;;;;3.70;1.40;;;16.70;53.70;;;;;;5031344;28;20175;-69
2022/04/26 11:50:59;;;;;;;4.88;1.48;;;16.30;55.40;;;;;;5033023;28;20045;-69
2022/04/26 11:53:26;;;;;;;3.75;1.40;;;16.50;56.20;;;;;;5031941;28;20039;-69
2022/04/26 11:56:00;;;;;;;4.10;1.63;;;16.20;55.50;;;;;;5033426;28;20042;-69
2022/04/26 11:58:38;;;;;;;3.22;1.55;;;16.30;55.10;;;;;;5029174;28;20095;-68
2022/04/26 12:01:17;;;;;;;3.90;1.33;;;16.40;53.50;;;;;;5032822;28;20037;-69
2022/04/26 12:03:52;;;;;;;3.55;1.30;;;16.30;54.50;;;;;;5029944;28;20116;-69
2022/04/26 12:06:31;;;;;;;3.40;1.08;;;16.50;52.80;;;;;;5032659;28;20038;-69
2022/04/26 12:09:05;;;;;;;4.85;1.75;;;17.10;50.90;;;;;;5032426;28;20039;-69
2022/04/26 12:11:38;;;;;;;3.70;1.73;;;17.70;51.50;;;;;;5028102;28;20049;-69
2022/04/26 12:14:08;;;;;;;6.43;1.80;;;18.00;51.90;;;;;;5032679;28;20042;-69
2022/04/26 12:16:47;;;;;;;3.13;1.38;;;17.60;50.00;;;;;;5032798;28;20067;-70
2022/04/26 12:19:14;;;;;;;6.65;1.90;;;17.00;50.60;;;;;;5029976;28;20042;-70
2022/04/26 12:21:46;;;;;;;2.65;1.63;;;16.50;52.70;;;;;;5031292;28;20088;-70
2022/04/26 12:24:18;;;;;;;3.47;1.50;;;16.20;53.40;;;;;;5029972;28;20033;-69
2022/04/26 12:26:56;;;;;;;2.58;1.35;;;16.70;52.70;;;;;;5029794;28;20058;-69
2022/04/26 12:29:24;;;;;;;6.07;1.85;;;17.40;51.10;;;;;;5030300;28;20071;-69
2022/04/26 12:31:50;;;;;;;3.55;1.35;;;17.90;51.60;;;;;;5030796;28;20075;-69
2022/04/26 12:34:31;;;;;;;5.70;1.55;;;18.40;50.10;;;;;;5031388;28;20460;-68
2022/04/26 12:37:03;;;;;;;3.15;1.33;;;18.60;49.80;;;;;;5030866;28;20057;-69
2022/04/26 12:39:41;;;;;;;3.50;1.23;;;18.00;50.00;;;;;;5031779;28;20551;-69
2022/04/26 12:42:12;;;;;;;3.83;1.33;;;17.50;50.00;;;;;;5030795;28;20083;-69
2022/04/26 12:44:49;;;;;;;6.07;1.33;;;16.80;51.10;;;;;;5030029;28;20489;-70
2022/04/26 12:52:46;;;;;;;2.90;1.10;;;17.40;51.20;;;;;;5030696;28;20055;-69
2022/04/26 12:55:31;;;;;;;5.28;1.63;;;17.50;50.60;;;;;;5031975;28;20039;-70
2022/04/26 12:58:08;;;;;;;3.55;1.60;;;17.80;50.10;;;;;;5031741;28;20045;-70
2022/04/26 13:00:39;;;;;;;5.22;1.30;;;17.70;50.00;;;;;;5030973;28;20053;-69
2022/04/26 13:03:07;;;;;;;4.40;1.55;;;17.30;49.90;;;;;;5026906;28;20049;-69
2022/04/26 13:05:41;;;;;;;3.00;1.10;;;17.20;49.90;;;;;;5032386;28;20389;-69
2022/04/26 13:08:07;;;;;;;;;;;16.90;50.20;;;;;;5030939;28;20056;-69
2022/04/26 13:10:33;;;;;;;2.90;1.20;;;16.40;50.20;;;;;;5030341;28;20004;-69
2022/04/26 13:12:59;;;;;;;3.58;1.67;;;16.50;52.30;;;;;;5029281;28;20550;-69
2022/04/26 13:15:27;;;;;;;4.55;1.27;;;16.60;50.90;;;;;;5030171;28;20381;-69
2022/04/26 13:17:53;;;;;;;3.20;1.35;;;17.00;50.90;;;;;;5029452;28;20045;-69
2022/04/26 13:20:19;;;;;;;3.10;1.40;;;16.90;50.60;;;;;;5030508;28;20060;-69
2022/04/26 13:22:45;;;;;;;3.72;1.42;;;16.70;49.60;;;;;;5013041;28;20057;-69
2022/04/26 13:25:11;;;;;;;1.95;1.25;;;16.60;50.20;;;;;;5031991;28;20056;-69
2022/04/26 13:27:38;;;;;;;3.58;1.90;;;16.40;51.50;;;;;;5030152;28;20045;-69
2022/04/26 13:30:06;;;;;;;5.43;2.13;;;16.00;51.90;;;;;;5031755;28;20039;-68
2022/04/26 13:32:32;;;;;;;5.20;1.80;;;15.80;52.70;;;;;;5029759;28;20056;-68
2022/04/26 13:34:58;;;;;;;4.72;1.60;;;15.80;53.90;;;;;;5031118;28;20048;-69
2022/04/26 13:37:25;;;;;;;4.75;1.60;;;15.50;52.40;;;;;;5031090;28;20041;-68
2022/04/26 13:39:51;;;;;;;4.15;1.30;;;15.20;54.20;;;;;;5000446;28;20443;-68
2022/04/26 13:42:19;;;;;;;4.97;1.70;;;15.20;53.60;;;;;;5029150;28;20120;-69
2022/04/26 13:44:45;;;;;;;3.47;1.58;;;15.50;53.60;;;;;;5029813;28;20053;-68
2022/04/26 13:47:11;;;;;;;5.47;1.83;;;15.60;53.10;;;;;;5030964;28;20045;-69
2022/04/26 13:49:39;;;;;;;5.78;1.70;;;15.70;54.20;;;;;;5029153;28;20045;-68
2022/04/26 13:52:06;;;;;;;3.10;1.65;;;15.90;54.30;;;;;;5012866;28;20045;-69
2022/04/26 13:54:32;;;;;;;2.95;1.23;;;16.10;53.60;;;;;;5029582;28;20043;-69
2022/04/26 13:56:58;;;;;;;3.60;1.50;;;16.20;53.00;;;;;;5029563;28;20048;-68
2022/04/26 13:59:25;;;;;;;4.13;1.63;;;16.20;52.30;;;;;;5031053;28;20381;-69
2022/04/26 14:01:52;;;;;;;4.82;1.80;;;16.30;51.50;;;;;;5029140;28;20410;-69
2022/04/26 14:04:18;;;;;;;3.40;1.50;;;16.20;51.80;;;;;;5029672;28;20056;-69
2022/04/26 14:06:44;;;;;;;6.32;1.45;;;16.20;51.00;;;;;;5012976;28;20124;-70
2022/04/26 14:09:10;;;;;;;3.13;1.13;;;16.20;51.70;;;;;;5029192;28;20121;-69
2022/04/26 14:11:36;;;;;;;4.60;1.27;;;16.20;51.50;;;;;;5029474;28;20091;-69
2022/04/26 14:22:15;;;;;;;3.47;1.65;;;15.20;53.70;;;;;;5029305;28;20516;-69
2022/04/26 14:24:42;;;;;;;4.88;1.45;;;15.00;54.50;;;;;;5030544;28;20037;-68
2022/04/26 14:27:08;;;;;;;4.03;1.65;;;15.00;54.60;;;;;;5030198;28;20037;-68
2022/04/26 14:29:34;;;;;;;4.13;1.65;;;15.10;54.90;;;;;;5028334;28;20432;-69
2022/04/26 14:32:00;;;;;;;3.55;1.73;;;15.10;55.40;;;;;;5029005;28;20103;-70
2022/04/26 14:34:26;;;;;;;3.22;1.48;;;15.20;54.50;;;;;;5029405;28;20038;-69
2022/04/26 14:36:53;;;;;;;5.50;1.70;;;15.00;54.30;;;;;;5030319;28;20091;-70
2022/04/26 14:39:18;;;;;;;3.90;1.85;;;14.80;55.50;;;;;;5028661;28;20041;-68
2022/04/26 14:41:44;;;;;;;4.95;1.65;;;14.60;56.40;;;;;;5027432;28;20037;-68
2022/04/26 14:44:10;;;;;;;4.03;1.92;;;14.60;55.90;;;;;;5029712;28;20084;-69
2022/04/26 14:46:36;;;;;;;5.13;1.95;;;14.50;55.80;;;;;;5029302;28;20084;-69
2022/04/26 14:49:03;;;;;;;5.18;1.85;;;14.30;56.40;;;;;;5028026;28;20084;-69
2022/04/26 14:51:29;;;;;;;4.35;1.77;;;14.30;57.00;;;;;;5030406;28;20041;-69
2022/04/26 14:53:55;;;;;;;6.63;1.90;;;14.10;57.00;;;;;;5027949;28;20049;-69
2022/04/26 14:56:21;;;;;;;4.75;1.92;;;14.00;57.20;;;;;;5028793;28;20103;-69
2022/04/26 14:58:49;;;;;;;4.80;1.77;;;14.00;57.30;;;;;;5029534;28;20049;-69
2022/04/26 15:01:15;;;;;;;4.38;1.58;;;13.80;57.20;;;;;;5028986;28;20112;-69
2022/04/26 15:03:41;;;;;;;4.75;1.85;;;13.90;57.20;;;;;;5028785;28;20045;-69
2022/04/26 15:06:07;;;;;;;4.30;1.55;;;13.80;56.70;;;;;;5012449;28;20029;-69
2022/04/26 15:11:16;;;;;;;4.75;1.40;;;13.90;57.50;;;;;;5027379;28;20380;-70
2022/04/26 15:16:38;;;;;;;3.92;2.00;;;14.00;57.90;;;;;;5026433;28;20057;-70
2022/04/26 15:19:11;;;;;;;5.63;1.83;;;14.10;58.60;;;;;;5026097;28;20124;-69
2022/04/26 15:21:38;;;;;;;2.78;1.40;;;14.20;58.90;;;;;;5026342;28;20111;-69
2022/04/26 15:24:05;;;;;;;6.68;1.80;;;14.20;58.90;;;;;;5026729;28;20073;-69
2022/04/26 15:26:31;;;;;;;2.70;1.63;;;14.30;59.50;;;;;;5027510;28;20532;-69
2022/04/26 15:28:57;;;;;;;3.42;1.50;;;14.40;59.80;;;;;;5028136;28;20520;-68
2022/04/26 15:31:24;;;;;;;5.43;1.60;;;14.40;59.40;;;;;;5029689;28;20046;-68
2022/04/26 15:33:52;;;;;;;6.07;1.85;;;14.50;59.10;;;;;;5029003;28;20038;-70
2022/04/26 15:36:20;;;;;;;5.25;1.92;;;14.50;59.90;;;;;;5031160;28;20076;-69
2022/04/26 15:38:46;;;;;;;6.32;2.05;;;14.50;60.10;;;;;;5021543;28;20555;-69
2022/04/26 15:41:13;;;;;;;5.72;1.88;;;14.50;59.60;;;;;;5036244;28;20144;-70
2022/04/26 15:43:39;;;;;;;6.10;2.03;;;14.40;59.60;;;;;;5032132;28;20422;-69
2022/04/26 15:46:08;;;;;;;6.05;2.13;;;14.20;58.60;;;;;;5033304;28;20106;-69
2022/04/26 15:48:37;;;;;;;3.25;1.80;;;14.00;58.90;;;;;;5031469;28;20054;-70
2022/04/26 15:51:06;;;;;;;4.85;2.20;;;13.80;59.70;;;;;;5033368;28;20033;-69
2022/04/26 15:53:36;;;;;;;6.90;1.85;;;13.70;60.30;;;;;;5028961;28;20137;-70
2022/04/26 15:56:02;;;;;;;3.97;1.80;;;13.60;60.50;;;;;;5036547;28;20630;-69
2022/04/26 15:58:28;;;;;;;4.25;2.13;;;13.50;61.40;;;;;;5035358;28;20442;-69
2022/04/26 16:00:55;;;;;;;4.53;2.03;;;13.50;61.60;;;;;;5031553;28;20050;-68
2022/04/26 16:03:21;;;;;;;4.03;1.67;;;13.50;61.60;;;;;;5030494;28;20678;-69
2022/04/26 16:05:47;;;;;;;4.25;2.00;;;13.40;61.40;;;;;;5031497;28;20038;-69
2022/04/26 16:08:14;;;;;;;7.10;2.35;;;13.40;61.20;;;;;;5031153;28;20401;-69
2022/04/26 16:21:37;;;;;;;3.78;1.75;;;13.20;62.70;;;;;;5031301;28;20590;-68
2022/04/26 16:24:04;;;;;;;3.20;1.80;;;13.20;63.60;;;;;;5032042;28;20088;-69
2022/04/26 16:26:32;;;;;;;7.65;1.85;;;13.10;63.00;;;;;;5032657;28;20041;-68
2022/04/26 16:28:57;;;;;;;3.63;1.70;;;13.20;63.30;;;;;;5011291;28;20038;-68
2022/04/26 16:31:30;;;;;;;5.80;2.90;;;13.20;62.40;;;;;;5030929;28;20126;-69
2022/04/26 16:33:57;;;;;;;4.70;2.42;;;13.10;62.40;;;;;;5028290;28;20053;-69
2022/04/26 16:36:25;;;;;;;5.18;2.10;;;13.10;62.80;;;;;;5034362;28;20053;-69
2022/04/26 16:38:51;;;;;;;3.45;1.65;;;13.10;62.10;;;;;;5013811;28;20128;-69
2022/04/26 16:41:19;;;;;;;5.93;2.00;;;13.20;62.50;;;;;;5031013;28;20067;-70
2022/04/26 16:43:46;;;;;;;11.65;2.20;;;13.20;62.10;;;;;;5030063;28;20152;-69
2022/04/26 16:46:15;;;;;;;5.68;2.33;;;13.20;62.40;;;;;;5031033;28;20485;-69
2022/04/26 16:48:41;;;;;;;4.05;1.80;;;13.30;62.90;;;;;;5029888;28;20469;-69
2022/04/26 16:51:07;;;;;;;3.88;2.05;;;13.40;62.50;;;;;;5013636;28;20064;-70
2022/04/26 16:53:33;;;;;;;4.75;1.83;;;13.30;61.70;;;;;;5029913;28;20416;-69
2022/04/26 16:55:58;;;;;;;3.35;1.73;;;13.20;62.30;;;;;;5030603;28;20068;-69
2022/04/26 16:58:24;;;;;;;3.03;1.75;;;13.20;62.60;;;;;;5030397;28;20080;-69
2022/04/26 17:00:50;;;;;;;4.65;1.90;;;13.10;62.30;;;;;;5014185;28;20074;-68
2022/04/26 17:03:16;;;;;;;3.67;1.83;;;13.10;62.00;;;;;;5028825;28;20060;-68
2022/04/26 17:05:47;;;;;;;4.28;1.90;;;13.00;62.30;;;;;;5030779;28;20086;-69
2022/04/26 17:08:18;;;;;;;3.05;1.80;;;12.90;62.70;;;;;;5030241;28;20037;-68